createdAt,value
2022-11-26T00:00:59.736Z,98050.28
2022-11-26T00:06:02.926Z,98043.22
2022-11-26T00:11:07.687Z,98041.47
2022-11-26T00:16:13.003Z,98047.31
2022-11-26T00:21:20.244Z,98051.91
2022-11-26T00:26:24.683Z,98059.63
2022-11-26T00:31:27.847Z,98057.94
2022-11-26T00:36:32.171Z,98065.88
2022-11-26T00:41:36.359Z,98075.38
2022-11-26T00:46:38.073Z,98071.88
2022-11-26T00:51:40.111Z,98086.72
2022-11-26T00:56:41.864Z,98087.09
2022-11-26T01:01:43.678Z,98088.09
2022-11-26T01:06:46.541Z,98091.19
2022-11-26T01:11:53.471Z,98086.59
2022-11-26T01:16:56.744Z,98083.41
2022-11-26T01:21:58.520Z,98087.78
2022-11-26T01:27:00.258Z,98084.16
2022-11-26T01:32:01.982Z,98095.22
2022-11-26T01:37:10.356Z,98099.59
2022-11-26T01:42:21.997Z,98103.47
2022-11-26T01:47:28.241Z,98114.13
2022-11-26T01:52:29.942Z,98115.81
2022-11-26T01:57:33.812Z,98115.38
2022-11-26T02:02:36.247Z,98123.66
2022-11-26T02:07:39.050Z,98130.81
2022-11-26T02:12:41.865Z,98132.47
2022-11-26T02:17:48.073Z,98127.91
2022-11-26T02:22:49.825Z,98148.19
2022-11-26T02:28:16.165Z,98137.47
2022-11-26T02:33:29.729Z,98150.00
2022-11-26T02:38:33.047Z,98152.50
2022-11-26T02:43:36.229Z,98149.56
2022-11-26T02:48:42.155Z,98150.19
2022-11-26T02:53:46.141Z,98149.56
2022-11-26T02:58:50.774Z,98160.47
2022-11-26T03:03:55.102Z,98167.19
2022-11-26T03:08:57.028Z,98179.38
2022-11-26T03:13:59.068Z,98176.03
2022-11-26T03:19:01.141Z,98184.03
2022-11-26T03:24:02.934Z,98191.63
2022-11-26T03:29:04.602Z,98186.53
2022-11-26T03:34:06.712Z,98176.50
2022-11-26T03:39:08.533Z,98189.03
2022-11-26T03:44:12.072Z,98197.44
2022-11-26T03:49:14.031Z,98210.25
2022-11-26T03:54:15.881Z,98210.06
2022-11-26T03:59:18.013Z,98217.16
2022-11-26T04:04:19.929Z,98222.63
2022-11-26T04:09:21.692Z,98215.50
2022-11-26T04:14:23.909Z,98229.13
2022-11-26T04:19:25.849Z,98235.03
2022-11-26T04:24:27.703Z,98231.69
2022-11-26T04:29:29.549Z,98242.19
2022-11-26T04:34:31.393Z,98251.72
2022-11-26T04:39:33.094Z,98259.25
2022-11-26T04:44:34.818Z,98263.50
2022-11-26T04:49:36.477Z,98269.34
2022-11-26T04:54:38.480Z,98265.97
2022-11-26T04:59:40.422Z,98278.84
2022-11-26T05:04:42.070Z,98279.66
2022-11-26T05:09:43.811Z,98281.09
2022-11-26T05:14:45.505Z,98289.28
2022-11-26T05:19:47.415Z,98291.34
2022-11-26T05:24:49.137Z,98304.09
2022-11-26T05:29:50.876Z,98307.22
2022-11-26T05:34:55.688Z,98303.00
2022-11-26T05:40:02.169Z,98312.50
2022-11-26T05:45:04.755Z,98328.63
2022-11-26T05:50:07.275Z,98325.97
2022-11-26T05:55:09.464Z,98332.00
2022-11-26T06:00:11.951Z,98325.09
2022-11-26T06:05:14.206Z,98330.69
2022-11-26T06:10:15.964Z,98328.16
2022-11-26T06:15:17.911Z,98353.06
2022-11-26T06:20:20.256Z,98357.00
2022-11-26T06:25:21.942Z,98355.72
2022-11-26T06:30:23.902Z,98358.44
2022-11-26T06:35:25.697Z,98358.66
2022-11-26T06:40:27.984Z,98365.41
2022-11-26T06:45:29.819Z,98374.25
2022-11-26T06:50:31.673Z,98380.59
2022-11-26T06:55:33.342Z,98391.03
2022-11-26T07:00:35.088Z,98400.03
2022-11-26T07:05:37.750Z,98400.63
2022-11-26T07:10:39.513Z,98409.00
2022-11-26T07:15:41.756Z,98403.09
2022-11-26T07:20:43.531Z,98403.09
2022-11-26T07:25:45.188Z,98421.34
2022-11-26T07:30:46.846Z,98427.00
2022-11-26T07:35:48.655Z,98433.72
2022-11-26T07:40:50.585Z,98423.19
2022-11-26T07:45:52.315Z,98434.94
2022-11-26T07:50:54.020Z,98442.03
2022-11-26T07:55:55.823Z,98455.06
2022-11-26T08:01:06.724Z,98447.13
2022-11-26T08:06:10.772Z,98451.50
2022-11-26T08:11:26.785Z,98461.75
2022-11-26T08:16:29.368Z,98453.72
2022-11-26T08:21:32.447Z,98453.28
2022-11-26T08:26:39.678Z,98460.59
2022-11-26T08:31:46.656Z,98467.88
2022-11-26T08:36:48.638Z,98466.19
2022-11-26T08:41:52.721Z,98465.69
2022-11-26T08:46:54.695Z,98469.38
2022-11-26T08:51:56.905Z,98485.31
2022-11-26T08:56:58.753Z,98493.78
2022-11-26T09:02:00.568Z,98500.47
2022-11-26T09:07:02.676Z,98516.03
2022-11-26T09:12:04.999Z,98516.19
2022-11-26T09:17:07.800Z,98518.31
2022-11-26T09:22:09.451Z,98532.38
2022-11-26T09:27:12.030Z,98542.03
2022-11-26T09:32:24.471Z,98544.16
2022-11-26T09:37:27.771Z,98550.06
2022-11-26T09:42:55.359Z,98535.56
2022-11-26T09:47:57.652Z,98532.50
2022-11-26T09:53:04.746Z,98535.03
2022-11-26T09:58:33.100Z,98535.59
2022-11-26T10:03:39.254Z,98534.22
2022-11-26T10:08:40.967Z,98524.13
2022-11-26T10:14:36.763Z,98519.00
2022-11-26T10:19:41.753Z,98523.13
2022-11-26T10:24:43.461Z,98515.94
2022-11-26T10:29:51.540Z,98521.13
2022-11-26T10:34:58.212Z,98515.28
2022-11-26T10:40:20.605Z,98514.81
2022-11-26T10:45:25.558Z,98507.94
2022-11-26T10:55:50.697Z,98509.66
2022-11-26T11:00:59.609Z,98500.59
2022-11-26T11:06:19.940Z,98502.28
2022-11-26T11:11:29.243Z,98500.44
2022-11-26T11:16:45.989Z,98493.16
2022-11-26T11:21:48.727Z,98491.19
2022-11-26T11:26:55.567Z,98488.00
2022-11-26T11:31:57.787Z,98493.22
2022-11-26T11:37:05.711Z,98498.53
2022-11-26T11:42:29.294Z,98499.16
2022-11-26T11:47:37.754Z,98520.47
2022-11-26T11:52:58.211Z,98503.72
2022-11-26T11:58:24.177Z,98499.97
2022-11-26T12:03:53.479Z,98493.28
2022-11-26T12:08:55.277Z,98502.09
2022-11-26T12:14:24.878Z,98495.91
2022-11-26T12:19:35.913Z,98495.34
2022-11-26T12:24:48.064Z,98502.06
2022-11-26T12:30:05.002Z,98501.00
2022-11-26T12:35:14.898Z,98502.66
2022-11-26T12:40:35.327Z,98500.31
2022-11-26T12:45:44.774Z,98504.13
2022-11-26T12:50:54.623Z,98500.31
2022-11-26T12:56:15.274Z,98511.53
2022-11-26T13:01:17.184Z,98511.38
2022-11-26T13:06:24.856Z,98513.44
2022-11-26T13:11:34.355Z,98508.88
2022-11-26T13:16:39.821Z,98506.38
2022-11-26T13:21:41.615Z,98502.13
2022-11-26T13:26:49.475Z,98503.09
2022-11-26T13:32:13.105Z,98499.09
2022-11-26T13:37:38.309Z,98489.66
2022-11-26T13:43:18.871Z,98495.44
2022-11-26T13:48:34.843Z,98495.91
2022-11-26T13:53:43.749Z,98490.44
2022-11-26T13:58:49.178Z,98490.44
2022-11-26T14:03:51.058Z,98488.69
2022-11-26T14:08:53.854Z,98484.44
2022-11-26T14:14:23.875Z,98489.66
2022-11-26T14:19:48.498Z,98486.94
2022-11-26T14:24:50.478Z,98484.38
2022-11-26T14:30:01.460Z,98480.13
2022-11-26T14:35:03.611Z,98490.69
2022-11-26T14:40:31.392Z,98491.19
2022-11-26T14:45:33.276Z,98492.09
2022-11-26T14:50:37.028Z,98492.06
2022-11-26T14:55:39.260Z,98503.84
2022-11-26T15:00:41.232Z,98505.16
2022-11-26T15:05:45.277Z,98507.53
2022-11-26T15:10:57.747Z,98511.34
2022-11-26T15:16:02.103Z,98519.44
2022-11-26T15:21:06.009Z,98525.84
2022-11-26T15:26:16.442Z,98521.06
2022-11-26T15:31:18.244Z,98533.69
2022-11-26T15:36:20.117Z,98539.84
2022-11-26T15:41:21.821Z,98540.28
2022-11-26T15:46:26.859Z,98542.41
2022-11-26T15:51:37.140Z,98529.91
2022-11-26T15:56:39.394Z,98539.13
2022-11-26T16:01:45.528Z,98534.94
2022-11-26T16:06:47.299Z,98542.25
2022-11-26T16:12:00.298Z,98531.19
2022-11-26T16:17:10.782Z,98536.81
2022-11-26T16:22:15.719Z,98523.19
2022-11-26T16:27:20.855Z,98529.03
2022-11-26T16:32:23.132Z,98529.22
2022-11-26T16:37:27.990Z,98519.75
2022-11-26T16:42:31.363Z,98525.59
2022-11-26T16:47:36.832Z,98526.00
2022-11-26T16:52:39.152Z,98526.41
2022-11-26T16:57:44.080Z,98526.81
2022-11-26T17:02:46.591Z,98528.03
2022-11-26T17:07:49.614Z,98528.44
2022-11-26T17:12:51.976Z,98529.66
2022-11-26T17:18:03.993Z,98537.56
2022-11-26T17:23:05.707Z,98531.28
2022-11-26T17:28:12.730Z,98538.31
2022-11-26T17:33:14.481Z,98535.41
2022-11-26T17:38:19.776Z,98529.91
2022-11-26T17:43:21.520Z,98533.25
2022-11-26T17:48:26.597Z,98539.03
2022-11-26T17:53:28.540Z,98542.31
2022-11-26T17:58:30.525Z,98543.50
2022-11-26T18:03:32.209Z,98539.72
2022-11-26T18:08:34.022Z,98540.53
2022-11-26T18:13:35.720Z,98550.50
2022-11-26T18:18:37.453Z,98568.81
2022-11-26T18:23:41.259Z,98578.88
2022-11-26T18:28:42.973Z,98573.31
2022-11-26T18:33:44.639Z,98572.81
2022-11-26T18:38:46.664Z,98579.00
2022-11-26T18:43:48.409Z,98584.81
2022-11-26T18:48:51.658Z,98583.47
2022-11-26T18:53:53.513Z,98577.16
2022-11-26T18:58:55.580Z,98574.44
2022-11-26T19:03:58.773Z,98566.88
2022-11-26T19:09:14.688Z,98571.56
2022-11-26T19:14:16.437Z,98571.56
2022-11-26T19:19:18.335Z,98579.31
2022-11-26T19:24:20.014Z,98587.44
2022-11-26T19:29:22.032Z,98585.78
2022-11-26T19:34:23.772Z,98581.41
2022-11-26T19:39:25.517Z,98568.25
2022-11-26T19:44:27.234Z,98552.09
2022-11-26T19:49:29.122Z,98548.13
2022-11-26T19:54:30.895Z,98549.78
2022-11-26T19:59:33.253Z,98548.88
2022-11-26T20:04:34.998Z,98555.06
2022-11-26T20:09:38.072Z,98552.16
2022-11-26T20:14:41.641Z,98551.69
2022-11-26T20:19:43.357Z,98555.66
2022-11-26T20:24:45.127Z,98545.97
2022-11-26T20:29:47.212Z,98541.13
2022-11-26T20:34:49.244Z,98541.31
2022-11-26T20:39:51.123Z,98536.56
2022-11-26T20:44:52.912Z,98533.75
2022-11-26T20:49:55.611Z,98522.66
2022-11-26T20:54:57.397Z,98530.47
2022-11-26T20:59:59.357Z,98530.25
2022-11-26T21:05:01.633Z,98536.47
2022-11-26T21:10:03.953Z,98526.59
2022-11-26T21:15:06.648Z,98524.38
2022-11-26T21:20:09.327Z,98529.41
2022-11-26T21:25:11.986Z,98525.03
2022-11-26T21:30:13.864Z,98517.97
2022-11-26T21:35:15.662Z,98514.03
2022-11-26T21:40:17.555Z,98504.88
2022-11-26T21:45:19.304Z,98505.91
2022-11-26T21:50:21.005Z,98507.97
2022-11-26T21:55:22.685Z,98505.91
2022-11-26T22:00:24.391Z,98511.16
2022-11-26T22:05:26.093Z,98514.69
2022-11-26T22:10:31.997Z,98507.16
2022-11-26T22:15:41.907Z,98514.13
2022-11-26T22:20:51.512Z,98519.47
2022-11-26T22:25:53.127Z,98524.34
2022-11-26T22:30:55.369Z,98537.41
2022-11-26T22:36:01.152Z,98547.19
2022-11-26T22:41:04.878Z,98553.47
2022-11-26T22:46:09.893Z,98553.66
2022-11-26T22:51:12.142Z,98552.38
2022-11-26T22:56:13.796Z,98555.63
2022-11-26T23:01:20.291Z,98536.22
2022-11-26T23:06:25.013Z,98538.91
2022-11-26T23:11:36.055Z,98535.84
2022-11-26T23:16:40.218Z,98513.56
2022-11-26T23:21:44.565Z,98504.88
2022-11-26T23:26:47.024Z,98511.41
2022-11-26T23:31:50.185Z,98503.53
2022-11-26T23:36:51.833Z,98494.00
2022-11-26T23:41:53.659Z,98492.97
2022-11-26T23:46:55.346Z,98490.75
2022-11-26T23:51:57.378Z,98493.28
2022-11-26T23:56:59.097Z,98490.28
